sensor_id;sensor_type;location;lat;lon;timestamp;P1;durP1;ratioP1;P2;durP2;ratioP2
12467;SDS011;57850;52.922;6.256;2022-07-29T00:00:23;1.65;;;1.50;;
12467;SDS011;57850;52.922;6.256;2022-07-29T00:02:49;1.92;;;1.20;;
12467;SDS011;57850;52.922;6.256;2022-07-29T00:05:16;2.92;;;1.73;;
12467;SDS011;57850;52.922;6.256;2022-07-29T00:07:44;2.33;;;1.35;;
12467;SDS011;57850;52.922;6.256;2022-07-29T00:10:11;3.95;;;1.40;;
12467;SDS011;57850;52.922;6.256;2022-07-29T00:12:37;1.95;;;1.67;;
12467;SDS011;57850;52.922;6.256;2022-07-29T00:15:07;2.30;;;1.48;;
12467;SDS011;57850;52.922;6.256;2022-07-29T00:17:34;2.88;;;1.40;;
12467;SDS011;57850;52.922;6.256;2022-07-29T00:20:00;1.58;;;1.30;;
12467;SDS011;57850;52.922;6.256;2022-07-29T00:22:27;5.50;;;1.70;;
12467;SDS011;57850;52.922;6.256;2022-07-29T00:24:55;3.28;;;1.60;;
12467;SDS011;57850;52.922;6.256;2022-07-29T00:27:24;2.88;;;1.50;;
12467;SDS011;57850;52.922;6.256;2022-07-29T00:29:51;2.03;;;1.40;;
12467;SDS011;57850;52.922;6.256;2022-07-29T00:32:17;2.70;;;1.60;;
12467;SDS011;57850;52.922;6.256;2022-07-29T00:34:44;3.75;;;1.70;;
12467;SDS011;57850;52.922;6.256;2022-07-29T00:37:28;2.38;;;1.55;;
12467;SDS011;57850;52.922;6.256;2022-07-29T00:39:56;2.92;;;1.33;;
12467;SDS011;57850;52.922;6.256;2022-07-29T00:42:23;4.30;;;1.58;;
12467;SDS011;57850;52.922;6.256;2022-07-29T00:44:50;1.83;;;1.60;;
12467;SDS011;57850;52.922;6.256;2022-07-29T00:47:16;3.42;;;1.60;;
12467;SDS011;57850;52.922;6.256;2022-07-29T00:49:43;3.42;;;1.75;;
12467;SDS011;57850;52.922;6.256;2022-07-29T00:52:12;2.10;;;1.50;;
12467;SDS011;57850;52.922;6.256;2022-07-29T00:54:39;2.42;;;1.50;;
12467;SDS011;57850;52.922;6.256;2022-07-29T00:57:07;2.25;;;1.60;;
12467;SDS011;57850;52.922;6.256;2022-07-29T00:59:34;2.45;;;1.48;;
12467;SDS011;57850;52.922;6.256;2022-07-29T01:02:01;2.63;;;1.73;;
12467;SDS011;57850;52.922;6.256;2022-07-29T01:04:27;2.97;;;1.55;;
12467;SDS011;57850;52.922;6.256;2022-07-29T01:06:54;1.92;;;1.45;;
12467;SDS011;57850;52.922;6.256;2022-07-29T01:09:21;2.83;;;1.73;;
12467;SDS011;57850;52.922;6.256;2022-07-29T01:11:49;2.30;;;1.48;;
12467;SDS011;57850;52.922;6.256;2022-07-29T01:14:18;3.15;;;1.95;;
12467;SDS011;57850;52.922;6.256;2022-07-29T01:16:45;4.22;;;1.90;;
12467;SDS011;57850;52.922;6.256;2022-07-29T01:19:22;4.05;;;1.70;;
12467;SDS011;57850;52.922;6.256;2022-07-29T01:22:09;1.90;;;1.55;;
12467;SDS011;57850;52.922;6.256;2022-07-29T01:24:57;1.90;;;1.60;;
12467;SDS011;57850;52.922;6.256;2022-07-29T01:27:34;4.70;;;1.80;;
12467;SDS011;57850;52.922;6.256;2022-07-29T01:30:12;2.90;;;1.63;;
12467;SDS011;57850;52.922;6.256;2022-07-29T01:32:39;3.50;;;1.58;;
12467;SDS011;57850;52.922;6.256;2022-07-29T01:35:09;1.88;;;1.67;;
12467;SDS011;57850;52.922;6.256;2022-07-29T01:37:42;4.47;;;2.03;;
12467;SDS011;57850;52.922;6.256;2022-07-29T01:40:11;1.73;;;1.63;;
12467;SDS011;57850;52.922;6.256;2022-07-29T01:42:48;3.05;;;1.73;;
12467;SDS011;57850;52.922;6.256;2022-07-29T01:45:20;6.50;;;1.70;;
12467;SDS011;57850;52.922;6.256;2022-07-29T01:47:52;2.10;;;1.80;;
12467;SDS011;57850;52.922;6.256;2022-07-29T01:50:26;2.13;;;1.50;;
12467;SDS011;57850;52.922;6.256;2022-07-29T01:53:00;2.45;;;1.85;;
12467;SDS011;57850;52.922;6.256;2022-07-29T01:55:28;2.83;;;1.80;;
12467;SDS011;57850;52.922;6.256;2022-07-29T01:57:58;3.63;;;2.30;;
12467;SDS011;57850;52.922;6.256;2022-07-29T02:00:28;2.90;;;2.20;;
12467;SDS011;57850;52.922;6.256;2022-07-29T02:02:57;3.45;;;2.10;;
12467;SDS011;57850;52.922;6.256;2022-07-29T02:05:25;2.33;;;2.13;;
12467;SDS011;57850;52.922;6.256;2022-07-29T02:07:54;2.63;;;2.30;;
12467;SDS011;57850;52.922;6.256;2022-07-29T02:10:26;3.13;;;1.80;;
12467;SDS011;57850;52.922;6.256;2022-07-29T02:12:54;3.05;;;1.92;;
12467;SDS011;57850;52.922;6.256;2022-07-29T02:15:24;2.45;;;1.83;;
12467;SDS011;57850;52.922;6.256;2022-07-29T02:17:55;3.20;;;2.15;;
12467;SDS011;57850;52.922;6.256;2022-07-29T02:20:25;3.63;;;2.20;;
12467;SDS011;57850;52.922;6.256;2022-07-29T02:22:52;4.63;;;2.13;;
12467;SDS011;57850;52.922;6.256;2022-07-29T02:25:22;2.65;;;1.80;;
12467;SDS011;57850;52.922;6.256;2022-07-29T02:27:50;3.08;;;2.03;;
12467;SDS011;57850;52.922;6.256;2022-07-29T02:30:18;3.63;;;1.90;;
12467;SDS011;57850;52.922;6.256;2022-07-29T02:32:47;3.00;;;2.25;;
12467;SDS011;57850;52.922;6.256;2022-07-29T02:35:18;4.47;;;2.17;;
12467;SDS011;57850;52.922;6.256;2022-07-29T02:37:47;3.92;;;2.15;;
12467;SDS011;57850;52.922;6.256;2022-07-29T02:40:35;2.28;;;1.60;;
12467;SDS011;57850;52.922;6.256;2022-07-29T02:43:05;4.53;;;1.80;;
12467;SDS011;57850;52.922;6.256;2022-07-29T02:45:35;4.03;;;2.00;;
12467;SDS011;57850;52.922;6.256;2022-07-29T02:48:03;2.80;;;1.90;;
12467;SDS011;57850;52.922;6.256;2022-07-29T02:50:38;7.32;;;2.00;;
12467;SDS011;57850;52.922;6.256;2022-07-29T02:53:12;3.40;;;2.45;;
12467;SDS011;57850;52.922;6.256;2022-07-29T02:55:43;4.15;;;1.92;;
12467;SDS011;57850;52.922;6.256;2022-07-29T02:58:13;4.78;;;2.20;;
12467;SDS011;57850;52.922;6.256;2022-07-29T03:00:47;5.43;;;2.30;;
12467;SDS011;57850;52.922;6.256;2022-07-29T03:03:19;3.78;;;1.98;;
12467;SDS011;57850;52.922;6.256;2022-07-29T03:05:49;3.92;;;1.60;;
12467;SDS011;57850;52.922;6.256;2022-07-29T03:08:18;2.58;;;2.05;;
12467;SDS011;57850;52.922;6.256;2022-07-29T03:10:45;2.60;;;1.77;;
12467;SDS011;57850;52.922;6.256;2022-07-29T03:13:13;5.03;;;1.92;;
12467;SDS011;57850;52.922;6.256;2022-07-29T03:15:41;2.80;;;1.80;;
12467;SDS011;57850;52.922;6.256;2022-07-29T03:18:09;4.13;;;1.98;;
12467;SDS011;57850;52.922;6.256;2022-07-29T03:20:36;3.78;;;1.90;;
12467;SDS011;57850;52.922;6.256;2022-07-29T03:23:04;4.53;;;1.73;;
12467;SDS011;57850;52.922;6.256;2022-07-29T03:25:31;3.20;;;1.73;;
12467;SDS011;57850;52.922;6.256;2022-07-29T03:27:57;4.03;;;1.80;;
12467;SDS011;57850;52.922;6.256;2022-07-29T03:30:26;2.60;;;1.75;;
12467;SDS011;57850;52.922;6.256;2022-07-29T03:32:55;4.78;;;1.90;;
12467;SDS011;57850;52.922;6.256;2022-07-29T03:35:22;5.10;;;1.80;;
12467;SDS011;57850;52.922;6.256;2022-07-29T03:37:49;4.10;;;1.70;;
12467;SDS011;57850;52.922;6.256;2022-07-29T03:40:18;2.65;;;1.92;;
12467;SDS011;57850;52.922;6.256;2022-07-29T03:42:49;4.25;;;1.80;;
12467;SDS011;57850;52.922;6.256;2022-07-29T03:45:18;4.93;;;1.75;;
12467;SDS011;57850;52.922;6.256;2022-07-29T03:47:47;2.55;;;1.88;;
12467;SDS011;57850;52.922;6.256;2022-07-29T03:50:18;2.85;;;1.90;;
12467;SDS011;57850;52.922;6.256;2022-07-29T03:52:46;1.92;;;1.55;;
12467;SDS011;57850;52.922;6.256;2022-07-29T03:55:17;4.55;;;1.98;;
12467;SDS011;57850;52.922;6.256;2022-07-29T03:57:44;4.03;;;1.70;;
12467;SDS011;57850;52.922;6.256;2022-07-29T04:00:12;4.68;;;1.70;;
12467;SDS011;57850;52.922;6.256;2022-07-29T04:02:40;4.22;;;2.00;;
12467;SDS011;57850;52.922;6.256;2022-07-29T04:05:11;2.88;;;1.73;;
12467;SDS011;57850;52.922;6.256;2022-07-29T04:07:38;6.30;;;1.83;;
12467;SDS011;57850;52.922;6.256;2022-07-29T04:10:05;2.47;;;1.60;;
12467;SDS011;57850;52.922;6.256;2022-07-29T04:12:34;2.83;;;1.80;;
12467;SDS011;57850;52.922;6.256;2022-07-29T04:15:01;4.47;;;1.50;;
12467;SDS011;57850;52.922;6.256;2022-07-29T04:17:27;2.90;;;1.85;;
12467;SDS011;57850;52.922;6.256;2022-07-29T04:19:56;3.70;;;1.90;;
12467;SDS011;57850;52.922;6.256;2022-07-29T04:22:23;3.90;;;2.13;;
12467;SDS011;57850;52.922;6.256;2022-07-29T04:24:49;3.15;;;2.00;;
12467;SDS011;57850;52.922;6.256;2022-07-29T04:27:16;4.75;;;1.80;;
12467;SDS011;57850;52.922;6.256;2022-07-29T04:29:44;4.13;;;1.80;;
12467;SDS011;57850;52.922;6.256;2022-07-29T04:32:11;5.93;;;1.90;;
12467;SDS011;57850;52.922;6.256;2022-07-29T04:34:37;4.00;;;1.98;;
12467;SDS011;57850;52.922;6.256;2022-07-29T04:37:03;2.53;;;1.67;;
12467;SDS011;57850;52.922;6.256;2022-07-29T04:39:30;6.00;;;1.70;;
12467;SDS011;57850;52.922;6.256;2022-07-29T04:41:56;4.82;;;1.55;;
12467;SDS011;57850;52.922;6.256;2022-07-29T04:44:23;3.67;;;2.03;;
12467;SDS011;57850;52.922;6.256;2022-07-29T04:46:51;2.40;;;1.55;;
12467;SDS011;57850;52.922;6.256;2022-07-29T04:49:18;5.07;;;1.83;;
12467;SDS011;57850;52.922;6.256;2022-07-29T04:51:44;4.13;;;1.95;;
12467;SDS011;57850;52.922;6.256;2022-07-29T04:54:11;3.22;;;1.95;;
12467;SDS011;57850;52.922;6.256;2022-07-29T04:56:37;3.67;;;2.10;;
12467;SDS011;57850;52.922;6.256;2022-07-29T04:59:06;5.93;;;2.17;;
12467;SDS011;57850;52.922;6.256;2022-07-29T05:01:33;2.28;;;1.55;;
12467;SDS011;57850;52.922;6.256;2022-07-29T05:04:09;4.13;;;1.80;;
12467;SDS011;57850;52.922;6.256;2022-07-29T05:06:36;3.03;;;1.75;;
12467;SDS011;57850;52.922;6.256;2022-07-29T05:09:02;3.03;;;1.70;;
12467;SDS011;57850;52.922;6.256;2022-07-29T05:11:29;4.50;;;1.95;;
12467;SDS011;57850;52.922;6.256;2022-07-29T05:13:56;5.30;;;1.75;;
12467;SDS011;57850;52.922;6.256;2022-07-29T05:16:22;4.32;;;2.00;;
12467;SDS011;57850;52.922;6.256;2022-07-29T05:18:49;5.57;;;1.70;;
12467;SDS011;57850;52.922;6.256;2022-07-29T05:21:17;3.08;;;1.73;;
12467;SDS011;57850;52.922;6.256;2022-07-29T05:23:43;3.88;;;1.73;;
12467;SDS011;57850;52.922;6.256;2022-07-29T05:26:10;2.58;;;1.85;;
12467;SDS011;57850;52.922;6.256;2022-07-29T05:28:37;3.80;;;2.03;;
12467;SDS011;57850;52.922;6.256;2022-07-29T05:31:03;3.88;;;1.80;;
12467;SDS011;57850;52.922;6.256;2022-07-29T05:33:30;4.15;;;2.03;;
12467;SDS011;57850;52.922;6.256;2022-07-29T05:35:56;5.18;;;2.20;;
12467;SDS011;57850;52.922;6.256;2022-07-29T05:38:28;4.13;;;1.63;;
12467;SDS011;57850;52.922;6.256;2022-07-29T05:40:57;2.85;;;1.88;;
12467;SDS011;57850;52.922;6.256;2022-07-29T05:43:27;3.22;;;1.80;;
12467;SDS011;57850;52.922;6.256;2022-07-29T05:45:55;3.10;;;1.70;;
12467;SDS011;57850;52.922;6.256;2022-07-29T05:48:22;3.70;;;2.00;;
12467;SDS011;57850;52.922;6.256;2022-07-29T05:50:49;3.65;;;1.90;;
12467;SDS011;57850;52.922;6.256;2022-07-29T05:53:15;3.83;;;1.80;;
12467;SDS011;57850;52.922;6.256;2022-07-29T05:55:43;6.20;;;2.25;;
12467;SDS011;57850;52.922;6.256;2022-07-29T05:58:10;5.43;;;1.80;;
12467;SDS011;57850;52.922;6.256;2022-07-29T06:00:38;4.78;;;2.17;;
12467;SDS011;57850;52.922;6.256;2022-07-29T06:03:05;4.18;;;2.20;;
12467;SDS011;57850;52.922;6.256;2022-07-29T06:05:31;2.72;;;1.70;;
12467;SDS011;57850;52.922;6.256;2022-07-29T06:07:58;2.95;;;2.00;;
12467;SDS011;57850;52.922;6.256;2022-07-29T06:10:25;3.30;;;1.70;;
12467;SDS011;57850;52.922;6.256;2022-07-29T06:12:53;3.90;;;2.22;;
12467;SDS011;57850;52.922;6.256;2022-07-29T06:15:20;3.65;;;1.83;;
12467;SDS011;57850;52.922;6.256;2022-07-29T06:17:47;3.33;;;1.77;;
12467;SDS011;57850;52.922;6.256;2022-07-29T06:20:14;5.35;;;2.60;;
12467;SDS011;57850;52.922;6.256;2022-07-29T06:22:41;4.00;;;1.95;;
12467;SDS011;57850;52.922;6.256;2022-07-29T06:25:07;3.03;;;1.70;;
12467;SDS011;57850;52.922;6.256;2022-07-29T06:27:35;5.18;;;2.15;;
12467;SDS011;57850;52.922;6.256;2022-07-29T06:30:03;9.40;;;1.80;;
12467;SDS011;57850;52.922;6.256;2022-07-29T06:32:32;2.17;;;1.55;;
12467;SDS011;57850;52.922;6.256;2022-07-29T06:34:58;3.53;;;1.70;;
12467;SDS011;57850;52.922;6.256;2022-07-29T06:37:26;6.40;;;2.05;;
12467;SDS011;57850;52.922;6.256;2022-07-29T06:39:52;3.40;;;1.50;;
12467;SDS011;57850;52.922;6.256;2022-07-29T06:42:41;3.60;;;1.90;;
12467;SDS011;57850;52.922;6.256;2022-07-29T06:45:10;5.13;;;1.90;;
12467;SDS011;57850;52.922;6.256;2022-07-29T06:47:37;5.50;;;1.98;;
12467;SDS011;57850;52.922;6.256;2022-07-29T06:50:04;4.25;;;2.08;;
12467;SDS011;57850;52.922;6.256;2022-07-29T06:52:31;6.72;;;2.03;;
12467;SDS011;57850;52.922;6.256;2022-07-29T06:54:58;5.63;;;1.75;;
12467;SDS011;57850;52.922;6.256;2022-07-29T06:57:25;5.05;;;2.13;;
12467;SDS011;57850;52.922;6.256;2022-07-29T06:59:52;4.47;;;1.95;;
12467;SDS011;57850;52.922;6.256;2022-07-29T07:02:23;4.90;;;1.95;;
12467;SDS011;57850;52.922;6.256;2022-07-29T07:04:49;7.53;;;2.03;;
12467;SDS011;57850;52.922;6.256;2022-07-29T07:07:16;4.93;;;1.67;;
12467;SDS011;57850;52.922;6.256;2022-07-29T07:09:42;2.90;;;2.20;;
12467;SDS011;57850;52.922;6.256;2022-07-29T07:12:09;5.65;;;2.35;;
12467;SDS011;57850;52.922;6.256;2022-07-29T07:14:36;3.92;;;1.90;;
12467;SDS011;57850;52.922;6.256;2022-07-29T07:17:02;3.38;;;2.00;;
12467;SDS011;57850;52.922;6.256;2022-07-29T07:19:30;4.25;;;1.90;;
12467;SDS011;57850;52.922;6.256;2022-07-29T07:21:57;3.75;;;1.80;;
12467;SDS011;57850;52.922;6.256;2022-07-29T07:24:24;2.67;;;1.98;;
12467;SDS011;57850;52.922;6.256;2022-07-29T07:26:51;2.53;;;1.60;;
12467;SDS011;57850;52.922;6.256;2022-07-29T07:29:17;4.47;;;1.90;;
12467;SDS011;57850;52.922;6.256;2022-07-29T07:31:44;3.00;;;1.80;;
12467;SDS011;57850;52.922;6.256;2022-07-29T07:34:10;2.38;;;1.75;;
12467;SDS011;57850;52.922;6.256;2022-07-29T07:36:38;5.30;;;2.38;;
12467;SDS011;57850;52.922;6.256;2022-07-29T07:39:05;2.55;;;2.05;;
12467;SDS011;57850;52.922;6.256;2022-07-29T07:41:32;4.57;;;2.38;;
12467;SDS011;57850;52.922;6.256;2022-07-29T07:43:58;3.97;;;1.92;;
12467;SDS011;57850;52.922;6.256;2022-07-29T07:46:25;3.53;;;2.00;;
12467;SDS011;57850;52.922;6.256;2022-07-29T07:48:51;3.35;;;2.17;;
12467;SDS011;57850;52.922;6.256;2022-07-29T07:51:18;2.90;;;2.00;;
12467;SDS011;57850;52.922;6.256;2022-07-29T07:53:46;3.70;;;2.08;;
12467;SDS011;57850;52.922;6.256;2022-07-29T07:56:14;4.15;;;2.00;;
12467;SDS011;57850;52.922;6.256;2022-07-29T07:58:42;6.95;;;2.20;;
12467;SDS011;57850;52.922;6.256;2022-07-29T08:01:08;4.65;;;1.98;;
12467;SDS011;57850;52.922;6.256;2022-07-29T08:03:35;4.07;;;2.10;;
12467;SDS011;57850;52.922;6.256;2022-07-29T08:06:02;4.65;;;2.38;;
12467;SDS011;57850;52.922;6.256;2022-07-29T08:08:29;4.03;;;2.35;;
12467;SDS011;57850;52.922;6.256;2022-07-29T08:10:58;4.97;;;2.03;;
12467;SDS011;57850;52.922;6.256;2022-07-29T08:13:27;6.32;;;1.70;;
12467;SDS011;57850;52.922;6.256;2022-07-29T08:15:55;4.72;;;1.85;;
12467;SDS011;57850;52.922;6.256;2022-07-29T08:18:26;3.63;;;2.42;;
12467;SDS011;57850;52.922;6.256;2022-07-29T08:20:54;3.92;;;1.90;;
12467;SDS011;57850;52.922;6.256;2022-07-29T08:23:21;2.95;;;2.22;;
12467;SDS011;57850;52.922;6.256;2022-07-29T08:25:48;4.95;;;2.30;;
12467;SDS011;57850;52.922;6.256;2022-07-29T08:28:16;3.80;;;2.13;;
12467;SDS011;57850;52.922;6.256;2022-07-29T08:30:42;3.33;;;2.10;;
12467;SDS011;57850;52.922;6.256;2022-07-29T08:33:09;4.32;;;2.47;;
12467;SDS011;57850;52.922;6.256;2022-07-29T08:35:36;3.92;;;2.25;;
12467;SDS011;57850;52.922;6.256;2022-07-29T08:38:02;8.73;;;2.38;;
12467;SDS011;57850;52.922;6.256;2022-07-29T08:40:30;5.60;;;2.70;;
12467;SDS011;57850;52.922;6.256;2022-07-29T08:42:57;4.63;;;2.20;;
12467;SDS011;57850;52.922;6.256;2022-07-29T08:45:26;5.18;;;2.45;;
12467;SDS011;57850;52.922;6.256;2022-07-29T08:47:55;7.00;;;2.70;;
12467;SDS011;57850;52.922;6.256;2022-07-29T08:50:22;5.13;;;2.95;;
12467;SDS011;57850;52.922;6.256;2022-07-29T08:52:49;3.95;;;2.40;;
12467;SDS011;57850;52.922;6.256;2022-07-29T08:55:17;4.85;;;2.50;;
12467;SDS011;57850;52.922;6.256;2022-07-29T08:57:44;7.75;;;2.70;;
12467;SDS011;57850;52.922;6.256;2022-07-29T09:00:12;7.10;;;2.80;;
12467;SDS011;57850;52.922;6.256;2022-07-29T09:02:41;7.25;;;2.70;;
12467;SDS011;57850;52.922;6.256;2022-07-29T09:05:12;6.05;;;3.00;;
12467;SDS011;57850;52.922;6.256;2022-07-29T09:07:39;3.63;;;2.58;;
12467;SDS011;57850;52.922;6.256;2022-07-29T09:10:08;2.72;;;2.53;;
12467;SDS011;57850;52.922;6.256;2022-07-29T09:12:35;6.40;;;2.72;;
12467;SDS011;57850;52.922;6.256;2022-07-29T09:15:02;3.58;;;2.55;;
12467;SDS011;57850;52.922;6.256;2022-07-29T09:17:43;3.88;;;2.25;;
12467;SDS011;57850;52.922;6.256;2022-07-29T09:20:11;5.38;;;2.83;;
12467;SDS011;57850;52.922;6.256;2022-07-29T09:22:40;5.13;;;2.50;;
12467;SDS011;57850;52.922;6.256;2022-07-29T09:25:07;5.10;;;2.50;;
12467;SDS011;57850;52.922;6.256;2022-07-29T09:27:33;5.28;;;2.60;;
12467;SDS011;57850;52.922;6.256;2022-07-29T09:30:01;3.38;;;2.50;;
12467;SDS011;57850;52.922;6.256;2022-07-29T09:32:30;7.13;;;3.00;;
12467;SDS011;57850;52.922;6.256;2022-07-29T09:37:45;4.57;;;2.50;;
12467;SDS011;57850;52.922;6.256;2022-07-29T09:40:14;5.53;;;3.10;;
12467;SDS011;57850;52.922;6.256;2022-07-29T09:42:42;5.30;;;2.83;;
12467;SDS011;57850;52.922;6.256;2022-07-29T09:45:10;4.90;;;2.80;;
12467;SDS011;57850;52.922;6.256;2022-07-29T09:47:41;4.47;;;2.47;;
12467;SDS011;57850;52.922;6.256;2022-07-29T09:50:12;4.88;;;2.80;;
12467;SDS011;57850;52.922;6.256;2022-07-29T09:52:45;5.07;;;2.50;;
12467;SDS011;57850;52.922;6.256;2022-07-29T09:55:13;8.55;;;2.30;;
12467;SDS011;57850;52.922;6.256;2022-07-29T09:57:41;6.15;;;2.40;;
12467;SDS011;57850;52.922;6.256;2022-07-29T10:00:10;5.88;;;2.88;;
12467;SDS011;57850;52.922;6.256;2022-07-29T10:02:38;4.68;;;2.42;;
12467;SDS011;57850;52.922;6.256;2022-07-29T10:05:16;4.35;;;2.90;;
12467;SDS011;57850;52.922;6.256;2022-07-29T10:07:46;3.70;;;2.38;;
12467;SDS011;57850;52.922;6.256;2022-07-29T10:10:21;6.15;;;2.95;;
12467;SDS011;57850;52.922;6.256;2022-07-29T10:12:49;3.58;;;2.55;;
12467;SDS011;57850;52.922;6.256;2022-07-29T10:15:18;5.63;;;2.80;;
12467;SDS011;57850;52.922;6.256;2022-07-29T10:17:45;5.88;;;2.75;;
12467;SDS011;57850;52.922;6.256;2022-07-29T10:20:13;5.05;;;3.10;;
12467;SDS011;57850;52.922;6.256;2022-07-29T10:22:40;5.68;;;2.70;;
12467;SDS011;57850;52.922;6.256;2022-07-29T10:25:10;3.67;;;2.97;;
12467;SDS011;57850;52.922;6.256;2022-07-29T10:27:36;5.35;;;3.13;;
12467;SDS011;57850;52.922;6.256;2022-07-29T10:30:04;4.65;;;2.80;;
12467;SDS011;57850;52.922;6.256;2022-07-29T10:32:34;7.43;;;2.80;;
12467;SDS011;57850;52.922;6.256;2022-07-29T10:35:12;6.75;;;3.15;;
12467;SDS011;57850;52.922;6.256;2022-07-29T10:37:49;4.97;;;3.00;;
12467;SDS011;57850;52.922;6.256;2022-07-29T10:40:34;7.13;;;2.90;;
12467;SDS011;57850;52.922;6.256;2022-07-29T10:43:35;7.28;;;3.28;;
12467;SDS011;57850;52.922;6.256;2022-07-29T10:46:03;5.32;;;3.00;;
12467;SDS011;57850;52.922;6.256;2022-07-29T10:48:30;5.15;;;2.80;;
12467;SDS011;57850;52.922;6.256;2022-07-29T10:50:58;4.40;;;2.83;;
12467;SDS011;57850;52.922;6.256;2022-07-29T10:53:47;4.13;;;2.70;;
12467;SDS011;57850;52.922;6.256;2022-07-29T10:56:26;6.85;;;3.15;;
12467;SDS011;57850;52.922;6.256;2022-07-29T11:01:51;5.85;;;3.30;;
12467;SDS011;57850;52.922;6.256;2022-07-29T11:04:29;11.00;;;2.95;;
12467;SDS011;57850;52.922;6.256;2022-07-29T11:07:26;4.05;;;2.72;;
12467;SDS011;57850;52.922;6.256;2022-07-29T11:12:50;5.68;;;2.97;;
12467;SDS011;57850;52.922;6.256;2022-07-29T11:15:17;4.22;;;2.97;;
12467;SDS011;57850;52.922;6.256;2022-07-29T11:18:07;8.40;;;2.83;;
12467;SDS011;57850;52.922;6.256;2022-07-29T11:20:35;5.30;;;3.35;;
12467;SDS011;57850;52.922;6.256;2022-07-29T11:23:23;7.15;;;3.13;;
12467;SDS011;57850;52.922;6.256;2022-07-29T11:28:53;3.22;;;2.58;;
12467;SDS011;57850;52.922;6.256;2022-07-29T11:31:32;4.60;;;2.70;;
12467;SDS011;57850;52.922;6.256;2022-07-29T11:34:20;6.65;;;2.92;;
12467;SDS011;57850;52.922;6.256;2022-07-29T11:39:45;4.35;;;2.60;;
12467;SDS011;57850;52.922;6.256;2022-07-29T11:45:12;3.35;;;2.38;;
12467;SDS011;57850;52.922;6.256;2022-07-29T11:47:47;4.53;;;2.72;;
12467;SDS011;57850;52.922;6.256;2022-07-29T11:50:28;5.72;;;2.80;;
12467;SDS011;57850;52.922;6.256;2022-07-29T11:53:00;8.88;;;2.40;;
12467;SDS011;57850;52.922;6.256;2022-07-29T11:55:29;6.88;;;2.80;;
12467;SDS011;57850;52.922;6.256;2022-07-29T11:58:00;3.47;;;2.83;;
12467;SDS011;57850;52.922;6.256;2022-07-29T12:00:29;5.13;;;2.45;;
12467;SDS011;57850;52.922;6.256;2022-07-29T12:02:59;7.13;;;3.00;;
12467;SDS011;57850;52.922;6.256;2022-07-29T12:05:31;7.10;;;2.60;;
12467;SDS011;57850;52.922;6.256;2022-07-29T12:08:10;4.18;;;2.60;;
12467;SDS011;57850;52.922;6.256;2022-07-29T12:10:39;5.47;;;3.45;;
12467;SDS011;57850;52.922;6.256;2022-07-29T12:13:06;5.07;;;3.00;;
12467;SDS011;57850;52.922;6.256;2022-07-29T12:15:36;4.15;;;2.67;;
12467;SDS011;57850;52.922;6.256;2022-07-29T12:18:10;6.32;;;2.53;;
12467;SDS011;57850;52.922;6.256;2022-07-29T12:20:41;5.93;;;2.75;;
12467;SDS011;57850;52.922;6.256;2022-07-29T12:23:08;4.78;;;3.25;;
12467;SDS011;57850;52.922;6.256;2022-07-29T12:25:37;5.78;;;3.22;;
12467;SDS011;57850;52.922;6.256;2022-07-29T12:28:05;5.15;;;2.88;;
12467;SDS011;57850;52.922;6.256;2022-07-29T12:30:38;5.00;;;2.72;;
12467;SDS011;57850;52.922;6.256;2022-07-29T12:33:10;4.00;;;3.10;;
12467;SDS011;57850;52.922;6.256;2022-07-29T12:35:41;7.22;;;3.20;;
12467;SDS011;57850;52.922;6.256;2022-07-29T12:38:09;7.07;;;3.00;;
12467;SDS011;57850;52.922;6.256;2022-07-29T12:40:37;4.30;;;2.70;;
12467;SDS011;57850;52.922;6.256;2022-07-29T12:43:07;4.90;;;2.67;;
12467;SDS011;57850;52.922;6.256;2022-07-29T12:45:35;4.80;;;2.80;;
12467;SDS011;57850;52.922;6.256;2022-07-29T12:48:04;9.35;;;2.88;;
12467;SDS011;57850;52.922;6.256;2022-07-29T12:50:33;5.50;;;3.28;;
12467;SDS011;57850;52.922;6.256;2022-07-29T12:53:10;3.28;;;2.67;;
12467;SDS011;57850;52.922;6.256;2022-07-29T12:55:39;4.97;;;2.97;;
12467;SDS011;57850;52.922;6.256;2022-07-29T12:58:06;4.10;;;2.80;;
12467;SDS011;57850;52.922;6.256;2022-07-29T13:00:33;6.72;;;3.63;;
12467;SDS011;57850;52.922;6.256;2022-07-29T13:02:59;6.07;;;2.95;;
12467;SDS011;57850;52.922;6.256;2022-07-29T13:05:39;6.65;;;2.75;;
12467;SDS011;57850;52.922;6.256;2022-07-29T13:08:13;8.07;;;2.92;;
12467;SDS011;57850;52.922;6.256;2022-07-29T13:10:43;4.38;;;2.90;;
12467;SDS011;57850;52.922;6.256;2022-07-29T13:13:11;3.65;;;2.90;;
12467;SDS011;57850;52.922;6.256;2022-07-29T13:15:39;7.13;;;3.40;;
12467;SDS011;57850;52.922;6.256;2022-07-29T13:20:54;8.10;;;4.07;;
12467;SDS011;57850;52.922;6.256;2022-07-29T13:23:21;6.25;;;3.38;;
12467;SDS011;57850;52.922;6.256;2022-07-29T13:25:48;5.97;;;3.20;;
12467;SDS011;57850;52.922;6.256;2022-07-29T13:28:14;4.38;;;2.90;;
12467;SDS011;57850;52.922;6.256;2022-07-29T13:30:41;7.63;;;3.00;;
12467;SDS011;57850;52.922;6.256;2022-07-29T13:33:08;6.28;;;2.95;;
12467;SDS011;57850;52.922;6.256;2022-07-29T13:35:35;5.10;;;3.50;;
12467;SDS011;57850;52.922;6.256;2022-07-29T13:38:03;7.53;;;3.47;;
12467;SDS011;57850;52.922;6.256;2022-07-29T13:40:29;4.30;;;2.78;;
12467;SDS011;57850;52.922;6.256;2022-07-29T13:42:56;7.85;;;3.03;;
12467;SDS011;57850;52.922;6.256;2022-07-29T13:45:22;5.45;;;2.55;;
12467;SDS011;57850;52.922;6.256;2022-07-29T13:47:49;4.05;;;2.50;;
12467;SDS011;57850;52.922;6.256;2022-07-29T13:50:15;7.85;;;2.80;;
12467;SDS011;57850;52.922;6.256;2022-07-29T13:52:44;6.15;;;3.10;;
12467;SDS011;57850;52.922;6.256;2022-07-29T13:55:14;3.85;;;2.53;;
12467;SDS011;57850;52.922;6.256;2022-07-29T13:57:40;3.97;;;2.67;;
12467;SDS011;57850;52.922;6.256;2022-07-29T14:00:08;4.30;;;2.70;;
12467;SDS011;57850;52.922;6.256;2022-07-29T14:02:35;3.15;;;2.75;;
12467;SDS011;57850;52.922;6.256;2022-07-29T14:05:03;6.80;;;2.90;;
12467;SDS011;57850;52.922;6.256;2022-07-29T14:07:33;5.40;;;2.80;;
12467;SDS011;57850;52.922;6.256;2022-07-29T14:09:59;6.72;;;2.85;;
12467;SDS011;57850;52.922;6.256;2022-07-29T14:12:27;3.88;;;2.55;;
12467;SDS011;57850;52.922;6.256;2022-07-29T14:14:54;6.55;;;2.70;;
12467;SDS011;57850;52.922;6.256;2022-07-29T14:17:20;5.15;;;2.67;;
12467;SDS011;57850;52.922;6.256;2022-07-29T14:19:47;4.18;;;2.22;;
12467;SDS011;57850;52.922;6.256;2022-07-29T14:22:14;4.45;;;2.55;;
12467;SDS011;57850;52.922;6.256;2022-07-29T14:24:40;5.32;;;2.70;;
12467;SDS011;57850;52.922;6.256;2022-07-29T14:27:09;4.72;;;3.30;;
12467;SDS011;57850;52.922;6.256;2022-07-29T14:29:37;7.35;;;2.88;;
12467;SDS011;57850;52.922;6.256;2022-07-29T14:32:04;4.50;;;3.05;;
12467;SDS011;57850;52.922;6.256;2022-07-29T14:34:30;3.33;;;2.40;;
12467;SDS011;57850;52.922;6.256;2022-07-29T14:36:57;6.43;;;3.05;;
12467;SDS011;57850;52.922;6.256;2022-07-29T14:39:24;7.10;;;3.17;;
12467;SDS011;57850;52.922;6.256;2022-07-29T14:41:50;6.13;;;2.72;;
12467;SDS011;57850;52.922;6.256;2022-07-29T14:44:18;4.57;;;2.88;;
12467;SDS011;57850;52.922;6.256;2022-07-29T14:46:46;6.72;;;3.22;;
12467;SDS011;57850;52.922;6.256;2022-07-29T14:49:13;5.00;;;2.58;;
12467;SDS011;57850;52.922;6.256;2022-07-29T14:51:40;6.65;;;2.67;;
12467;SDS011;57850;52.922;6.256;2022-07-29T14:54:06;4.57;;;2.65;;
12467;SDS011;57850;52.922;6.256;2022-07-29T14:56:33;5.05;;;2.83;;
12467;SDS011;57850;52.922;6.256;2022-07-29T14:59:00;4.10;;;2.97;;
12467;SDS011;57850;52.922;6.256;2022-07-29T15:01:26;7.93;;;2.85;;
12467;SDS011;57850;52.922;6.256;2022-07-29T15:03:55;3.90;;;2.65;;
12467;SDS011;57850;52.922;6.256;2022-07-29T15:06:21;7.70;;;2.97;;
12467;SDS011;57850;52.922;6.256;2022-07-29T15:08:48;5.95;;;2.40;;
12467;SDS011;57850;52.922;6.256;2022-07-29T15:11:14;5.55;;;3.25;;
12467;SDS011;57850;52.922;6.256;2022-07-29T15:13:41;4.85;;;2.30;;
12467;SDS011;57850;52.922;6.256;2022-07-29T15:16:07;5.18;;;2.70;;
12467;SDS011;57850;52.922;6.256;2022-07-29T15:18:34;5.55;;;2.63;;